Time;durP1;ratioP1;P1;durP2;ratioP2;P2;SDS_P1;SDS_P2;PMS_P1;PMS_P2;Temp;Humidity;BMP_temperature;BMP_pressure;BME280_temperature;BME280_humidity;BME280_pressure;Samples;Min_cycle;Max_cycle;Signal;HPM_P1;HPM_P2
2022/12/15 00:39:58;;;;;;;12.35;7.72;;;3.00;99.90;;;1.89;100.00;99837.25;4169888;28;20032;-73
2022/12/15 00:41:58;;;;;;;12.27;7.75;;;3.00;99.90;;;1.95;100.00;99844.56;4170885;28;20033;-73
2022/12/15 00:43:59;;;;;;;10.82;7.63;;;3.00;99.90;;;1.92;100.00;99837.00;4169394;28;20025;-73
2022/12/15 00:48:20;;;;;;;12.80;8.52;;;3.00;99.90;;;1.91;100.00;99839.75;4170053;28;20033;-73
2022/12/15 01:20:36;;;;;;;10.40;6.13;;;3.10;99.90;;;1.88;100.00;99842.59;4170436;28;20562;-73
2022/12/15 01:22:38;;;;;;;10.82;5.93;;;3.00;99.90;;;1.89;100.00;99837.25;4170333;28;20029;-73
2022/12/15 01:24:39;;;;;;;9.00;5.70;;;3.00;99.90;;;1.91;100.00;99837.16;4168864;28;20044;-73
2022/12/15 01:26:40;;;;;;;8.68;5.25;;;3.00;99.90;;;1.89;100.00;99844.22;4170224;28;20049;-73
2022/12/15 01:28:40;;;;;;;8.10;5.15;;;3.10;99.90;;;1.93;100.00;99846.47;4169056;28;20036;-73
2022/12/15 01:30:41;;;;;;;9.18;5.78;;;3.10;99.90;;;1.90;100.00;99838.91;4169046;28;20032;-73
2022/12/15 01:32:42;;;;;;;8.27;5.47;;;3.10;99.90;;;1.95;100.00;99849.78;4169567;28;20018;-73
2022/12/15 01:34:43;;;;;;;8.57;5.30;;;3.10;99.90;;;1.91;100.00;99845.75;4169990;28;20037;-73
2022/12/15 01:36:45;;;;;;;9.65;5.90;;;3.10;99.90;;;1.93;100.00;99843.88;4170726;28;20044;-73
2022/12/15 01:38:46;;;;;;;8.98;5.25;;;3.10;99.90;;;1.96;100.00;99845.41;4168789;28;20049;-73
2022/12/15 01:40:59;;;;;;;10.75;5.30;;;3.10;99.90;;;1.98;100.00;99849.53;4169867;28;20030;-73
2022/12/15 01:43:00;;;;;;;9.30;5.63;;;3.10;99.90;;;1.93;100.00;99843.88;4152363;28;20041;-73
2022/12/15 01:45:23;;;;;;;8.65;5.65;;;3.10;99.90;;;1.94;100.00;99840.31;4168811;28;20060;-73
2022/12/15 01:47:26;;;;;;;9.98;6.32;;;3.10;99.90;;;1.95;100.00;99846.34;4169781;28;20037;-73
2022/12/15 01:49:30;;;;;;;10.35;6.63;;;3.10;99.90;;;1.97;100.00;99847.84;4168658;28;20025;-73
2022/12/15 01:51:36;;;;;;;11.37;5.93;;;3.10;99.90;;;1.95;100.00;99848.94;4169778;28;20493;-74
2022/12/15 01:53:47;;;;;;;11.63;6.55;;;3.10;99.90;;;1.91;100.00;99850.94;4168488;28;20080;-74
2022/12/15 01:55:49;;;;;;;11.30;6.93;;;3.10;99.90;;;1.86;100.00;99841.88;4168708;28;20501;-73
2022/12/15 01:57:54;;;;;;;11.38;7.28;;;3.10;99.90;;;1.95;100.00;99844.56;4167466;28;20492;-73
2022/12/15 01:59:58;;;;;;;;;;;3.10;99.90;;;1.91;100.00;99840.56;4168900;28;20030;-73
2022/12/15 02:02:00;;;;;;;12.40;6.40;;;3.10;99.90;;;1.91;100.00;99829.34;4168327;28;19909;-73
2022/12/15 02:04:02;;;;;;;10.30;6.90;;;3.10;99.90;;;1.89;100.00;99837.25;4152054;28;20093;-73
2022/12/15 02:06:03;;;;;;;11.18;6.45;;;3.10;99.90;;;1.85;100.00;99830.63;4168380;28;20104;-73
2022/12/15 02:08:05;;;;;;;15.45;7.05;;;3.10;99.90;;;1.88;100.00;99825.19;4168372;28;20018;-73
2022/12/15 02:10:09;;;;;;;12.13;7.95;;;3.10;99.90;;;1.91;100.00;99830.16;4168199;28;20108;-73
2022/12/15 02:12:38;;;;;;;11.38;7.93;;;3.10;99.90;;;1.93;100.00;99840.44;4168007;28;20029;-73
2022/12/15 02:15:15;;;;;;;12.43;7.35;;;3.10;99.90;;;1.91;100.00;99856.16;4168017;28;20033;-73
2022/12/15 02:18:12;;;;;;;12.35;7.57;;;3.10;99.90;;;1.90;100.00;99859.72;4160612;28;20037;-73
2022/12/15 02:20:38;;;;;;;13.85;8.02;;;3.10;99.90;;;2.07;100.00;99860.97;4169436;28;20535;-73
2022/12/15 02:22:59;;;;;;;12.40;8.38;;;3.10;99.90;;;1.98;100.00;99870.31;4167941;28;20459;-73
2022/12/15 02:25:21;;;;;;;12.10;7.50;;;3.10;99.90;;;1.99;100.00;99878.97;4157575;28;20026;-73
2022/12/15 02:27:44;;;;;;;12.02;8.25;;;3.10;99.90;;;1.95;100.00;99883.56;4169064;28;20029;-73
2022/12/15 02:30:12;;;;;;;14.40;8.43;;;3.10;99.90;;;1.90;100.00;99875.31;4169275;28;20400;-73
2022/12/15 02:32:20;;;;;;;13.60;8.48;;;3.10;99.90;;;1.93;100.00;99877.69;4148967;28;20461;-73
2022/12/15 02:34:52;;;;;;;16.17;8.95;;;3.10;99.90;;;1.93;100.00;99888.09;4167297;28;20064;-73
2022/12/15 02:37:09;;;;;;;16.70;9.20;;;3.10;99.90;;;1.92;100.00;99888.19;4169210;28;20028;-73
2022/12/15 02:39:12;;;;;;;17.95;9.18;;;3.10;99.90;;;1.91;100.00;99892.56;4168973;28;20428;-73
2022/12/15 02:41:37;;;;;;;15.27;9.57;;;3.00;99.90;;;2.00;100.00;99884.03;4168000;28;20057;-73
2022/12/15 02:43:38;;;;;;;12.82;8.32;;;3.10;99.90;;;1.96;100.00;99890.44;4167582;28;20029;-73
2022/12/15 02:45:54;;;;;;;12.73;8.63;;;3.10;99.90;;;1.92;100.00;99888.19;4167833;28;20034;-73
2022/12/15 02:48:33;;;;;;;15.13;8.90;;;3.10;99.90;;;1.96;100.00;99890.44;4167811;28;20033;-73
2022/12/15 02:50:52;;;;;;;15.57;9.38;;;3.10;99.90;;;1.95;100.00;99893.16;4167710;28;20029;-73
2022/12/15 02:53:30;;;;;;;14.48;8.95;;;3.10;99.90;;;1.93;100.00;99893.28;4167457;28;20026;-73
2022/12/15 02:56:11;;;;;;;15.00;9.13;;;3.10;99.90;;;1.95;100.00;99893.97;4168731;28;20026;-73
2022/12/15 02:58:34;;;;;;;15.90;9.07;;;3.10;99.90;;;1.90;100.00;99885.72;4168803;28;20029;-73
2022/12/15 03:00:41;;;;;;;16.25;9.27;;;3.10;99.90;;;2.01;100.00;99887.47;4164451;28;20121;-73
2022/12/15 03:02:53;;;;;;;17.50;10.10;;;3.10;99.90;;;1.94;100.00;99887.13;4164504;28;20044;-73
2022/12/15 03:04:55;;;;;;;17.58;10.10;;;3.10;99.90;;;1.97;100.00;99883.47;4167634;28;20497;-73
2022/12/15 03:06:59;;;;;;;17.15;10.05;;;3.10;99.90;;;1.95;100.00;99893.97;4167421;28;20061;-73
2022/12/15 03:09:00;;;;;;;16.85;10.18;;;3.10;99.90;;;1.97;100.00;99883.47;4168903;28;20026;-73
2022/12/15 03:11:01;;;;;;;15.30;8.82;;;3.10;99.90;;;1.91;100.00;99873.56;4167402;28;20037;-73
2022/12/15 03:13:02;;;;;;;13.48;9.00;;;3.10;99.90;;;1.98;100.00;99888.53;4167354;28;20029;-73
2022/12/15 03:15:03;;;;;;;18.08;10.90;;;3.10;99.90;;;1.91;100.00;99871.75;4167120;28;20076;-73
2022/12/15 03:17:06;;;;;;;14.52;10.07;;;3.10;99.90;;;1.87;100.00;99870.38;4168906;28;20028;-73
2022/12/15 03:19:07;;;;;;;17.27;10.00;;;3.10;99.90;;;1.95;100.00;99877.53;4167637;28;20477;-73
2022/12/15 03:21:08;;;;;;;15.15;9.93;;;3.00;99.90;;;1.92;100.00;99865.63;4167506;28;20038;-73
2022/12/15 03:23:08;;;;;;;16.80;9.60;;;3.00;99.90;;;1.80;100.00;99861.41;4167315;28;20026;-73
2022/12/15 03:25:09;;;;;;;16.40;9.95;;;3.10;99.90;;;1.82;100.00;99856.91;4167482;28;20044;-73
2022/12/15 03:27:10;;;;;;;15.48;9.73;;;3.00;99.90;;;1.86;100.00;99852.28;4168387;28;20053;-73
2022/12/15 03:29:11;;;;;;;16.10;9.98;;;3.00;99.90;;;1.86;100.00;99854.88;4167464;28;20034;-73
2022/12/15 03:31:12;;;;;;;13.95;9.48;;;3.00;99.90;;;1.87;100.00;99859.97;4168385;28;20075;-73
2022/12/15 03:33:13;;;;;;;15.93;8.85;;;3.00;99.90;;;1.85;100.00;99845.44;4168613;28;20549;-73
2022/12/15 03:35:14;;;;;;;14.65;9.00;;;3.00;99.90;;;1.86;100.00;99853.09;4167399;28;20109;-73
2022/12/15 03:37:15;;;;;;;18.35;10.50;;;3.00;99.90;;;1.90;100.00;99854.53;4168647;28;20028;-73
2022/12/15 03:39:16;;;;;;;18.25;11.40;;;3.00;99.90;;;1.88;100.00;99842.59;4168348;28;20026;-73
2022/12/15 03:41:18;;;;;;;17.80;9.20;;;3.00;99.90;;;1.85;100.00;99841.03;4167351;28;20032;-73
2022/12/15 03:43:18;;;;;;;17.90;10.73;;;3.00;99.90;;;1.88;100.00;99838.19;4168279;28;20025;-73
2022/12/15 03:45:23;;;;;;;16.42;9.98;;;3.00;99.90;;;1.93;100.00;99843.03;4167363;28;20432;-73
2022/12/15 03:47:24;;;;;;;16.00;9.75;;;3.00;99.90;;;1.90;100.00;99838.09;4167097;28;20493;-73
2022/12/15 03:49:25;;;;;;;14.77;9.38;;;3.00;99.90;;;1.91;100.00;99832.75;4167211;28;20025;-73
2022/12/15 03:51:26;;;;;;;14.85;9.05;;;3.10;99.90;;;1.96;100.00;99828.03;4167193;28;20404;-73
2022/12/15 03:53:27;;;;;;;17.08;9.98;;;3.10;99.90;;;1.86;100.00;99821.06;4167937;28;20028;-73
2022/12/15 03:55:29;;;;;;;16.60;10.15;;;3.00;99.90;;;1.91;100.00;99827.56;4168248;28;20485;-73
2022/12/15 03:57:30;;;;;;;16.80;10.40;;;3.10;99.90;;;1.89;100.00;99821.66;4168138;28;20025;-73
2022/12/15 03:59:31;;;;;;;15.18;9.65;;;3.10;99.90;;;2.00;100.00;99826.81;4167301;28;20030;-73
2022/12/15 04:01:35;;;;;;;13.13;9.07;;;3.10;99.90;;;1.95;100.00;99825.53;4168477;28;20022;-73
2022/12/15 04:03:35;;;;;;;14.10;9.13;;;3.10;99.90;;;1.91;100.00;99819.75;4167076;28;20103;-73
2022/12/15 04:05:37;;;;;;;13.45;8.68;;;3.10;99.90;;;2.00;100.00;99837.22;4167157;28;20284;-73
2022/12/15 04:07:38;;;;;;;20.02;11.20;;;3.10;99.90;;;1.93;100.00;99832.66;4168381;28;20061;-74
2022/12/15 04:09:38;;;;;;;15.98;8.98;;;3.10;99.90;;;1.92;100.00;99834.41;4168225;28;20493;-74
2022/12/15 04:11:39;;;;;;;13.85;8.52;;;3.10;99.90;;;1.92;100.00;99837.00;4168096;28;20038;-74
2022/12/15 04:13:40;;;;;;;13.98;8.55;;;3.10;99.90;;;1.97;100.00;99837.47;4166812;28;20489;-73
2022/12/15 04:15:41;;;;;;;15.60;9.73;;;3.10;99.90;;;2.03;100.00;99823.16;4166644;28;20088;-73
2022/12/15 04:17:42;;;;;;;12.68;8.60;;;3.10;99.90;;;2.01;100.00;99836.28;4166936;28;20037;-73
2022/12/15 04:22:03;;;;;;;16.92;8.82;;;3.10;99.90;;;1.97;100.00;99845.25;4171130;28;20032;-73
2022/12/15 05:31:53;;;;;;;17.27;9.60;;;3.20;99.90;;;1.97;100.00;99873.88;4169705;28;20083;-73
2022/12/15 05:33:55;;;;;;;15.13;9.02;;;3.10;99.90;;;1.99;100.00;99884.16;4170171;28;20596;-73
2022/12/15 05:35:57;;;;;;;18.48;9.68;;;3.10;99.90;;;1.98;100.00;99883.34;4169913;28;20048;-73
2022/12/15 05:37:57;;;;;;;15.65;9.75;;;3.10;99.90;;;2.00;100.00;99876.22;4168842;28;20105;-73
2022/12/15 05:39:58;;;;;;;16.42;10.18;;;3.10;99.90;;;1.97;100.00;99879.06;4168817;28;20091;-73
2022/12/15 05:41:59;;;;;;;15.35;9.27;;;3.10;99.90;;;1.92;100.00;99876.03;4169915;28;20021;-73
2022/12/15 05:44:00;;;;;;;13.60;8.95;;;3.10;99.90;;;1.95;100.00;99873.19;4169828;28;20065;-73
2022/12/15 05:46:04;;;;;;;16.75;10.23;;;3.10;99.90;;;2.00;100.00;99881.44;4169982;28;20072;-73
2022/12/15 05:48:05;;;;;;;15.13;9.23;;;3.10;99.90;;;1.95;100.00;99874.94;4169886;28;20025;-73
2022/12/15 05:50:07;;;;;;;14.82;9.43;;;3.10;99.90;;;1.92;100.00;99876.03;4168674;28;20048;-73
2022/12/15 05:52:08;;;;;;;16.23;9.02;;;3.10;99.90;;;1.84;100.00;99873.22;4168337;28;20048;-73
2022/12/15 05:54:11;;;;;;;15.73;9.25;;;3.10;99.90;;;1.91;100.00;99871.75;4169848;28;20022;-73
2022/12/15 05:56:14;;;;;;;15.82;9.23;;;3.10;99.90;;;1.89;100.00;99867.63;4169758;28;20037;-73
2022/12/15 05:58:15;;;;;;;14.23;8.38;;;3.00;99.90;;;1.86;100.00;99871.31;4168317;28;20032;-73
2022/12/15 06:00:16;;;;;;;13.98;9.13;;;3.00;99.90;;;1.86;100.00;99868.72;4167704;28;20026;-73
2022/12/15 06:02:17;;;;;;;15.52;9.38;;;3.00;99.90;;;1.93;100.00;99875.09;4156112;28;20037;-73
2022/12/15 06:04:18;;;;;;;14.45;9.40;;;3.00;99.90;;;1.93;100.00;99874.25;4169640;28;20041;-73
2022/12/15 06:06:19;;;;;;;15.68;9.52;;;3.00;99.90;;;1.84;100.00;99868.00;4169691;28;20096;-73
2022/12/15 06:08:20;;;;;;;16.05;8.93;;;3.00;99.90;;;1.80;100.00;99883.97;4151762;28;20033;-74
2022/12/15 06:10:21;;;;;;;15.05;9.27;;;3.00;99.90;;;1.77;100.00;99876.41;4169509;28;20030;-74
2022/12/15 06:12:22;;;;;;;17.52;9.88;;;3.00;99.90;;;1.74;100.00;99885.28;4169185;28;20061;-73
2022/12/15 06:14:22;;;;;;;15.02;9.02;;;3.00;99.90;;;1.75;100.00;99873.94;4168062;28;20456;-73
2022/12/15 06:16:26;;;;;;;13.57;8.90;;;3.00;99.90;;;1.77;100.00;99877.22;4169109;28;20046;-73
2022/12/15 06:18:34;;;;;;;16.17;9.38;;;2.90;99.90;;;1.80;100.00;99879.59;4151779;28;20113;-73
2022/12/15 06:20:35;;;;;;;15.32;9.35;;;2.90;99.90;;;1.70;100.00;99877.84;4152107;28;20038;-73
2022/12/15 06:22:36;;;;;;;13.65;9.20;;;2.90;99.90;;;1.70;100.00;99880.47;4167929;28;20123;-74
2022/12/15 06:24:37;;;;;;;14.95;8.77;;;2.90;99.90;;;1.66;100.00;99883.28;4169132;28;20033;-74
2022/12/15 06:26:39;;;;;;;14.23;9.38;;;2.90;99.90;;;1.73;100.00;99886.25;4168105;28;20026;-73
2022/12/15 06:28:40;;;;;;;11.52;7.45;;;2.90;99.90;;;1.71;100.00;99890.72;4167780;28;20056;-73
2022/12/15 06:30:41;;;;;;;15.15;8.45;;;2.90;99.90;;;1.69;100.00;99890.03;4168061;28;20104;-73
2022/12/15 06:32:42;;;;;;;13.35;8.75;;;2.80;99.90;;;1.60;100.00;99888.97;4168979;28;20396;-73
2022/12/15 06:34:43;;;;;;;15.70;8.98;;;2.80;99.90;;;1.60;100.00;99893.34;4169231;28;20022;-73
2022/12/15 06:36:44;;;;;;;13.48;8.27;;;2.80;99.90;;;1.56;99.31;99882.34;4169119;28;20108;-73
2022/12/15 06:38:46;;;;;;;12.57;7.68;;;2.80;99.90;;;1.62;99.34;99894.88;4169203;28;20456;-74
2022/12/15 06:40:55;;;;;;;14.15;7.70;;;2.80;99.90;;;1.59;99.78;99891.69;4168960;28;20063;-73
2022/12/15 06:42:56;;;;;;;12.30;7.53;;;2.80;99.90;;;1.56;100.00;99894.50;4167151;28;20143;-74
2022/12/15 06:44:57;;;;;;;13.52;8.07;;;2.80;99.90;;;1.60;99.25;99893.34;4168976;28;20038;-74
2022/12/15 06:46:58;;;;;;;15.18;7.85;;;2.80;99.90;;;1.53;97.62;99894.75;4168933;28;20032;-73
2022/12/15 06:48:59;;;;;;;11.13;7.82;;;2.70;99.90;;;1.45;97.48;99891.94;4168844;28;20033;-74
2022/12/15 06:51:06;;;;;;;11.75;7.43;;;2.70;99.90;;;1.47;97.51;99892.63;4167752;28;20026;-73
2022/12/15 06:53:07;;;;;;;16.08;7.68;;;2.60;99.90;;;1.42;97.67;99887.81;4151165;28;20401;-74
2022/12/15 06:55:08;;;;;;;16.45;8.48;;;2.60;99.90;;;1.41;97.60;99893.09;4168795;28;20033;-74
2022/12/15 06:57:09;;;;;;;13.25;8.23;;;2.60;99.90;;;1.38;98.27;99901.13;4167336;28;20170;-74
2022/12/15 06:59:11;;;;;;;12.05;7.70;;;2.60;99.90;;;1.30;98.26;99886.16;4168852;28;20040;-74
2022/12/15 07:01:12;;;;;;;11.90;7.75;;;2.50;99.90;;;1.28;99.49;99889.81;4167469;28;20098;-74
2022/12/15 07:03:16;;;;;;;12.50;7.22;;;2.50;99.90;;;1.27;100.00;99890.75;4167745;28;20030;-74
2022/12/15 07:05:17;;;;;;;;;;;2.50;99.90;;;1.06;100.00;99896.66;4168889;28;20030;-74
2022/12/15 07:07:19;;;;;;;10.45;7.00;;;2.40;99.90;;;1.04;100.00;99887.31;4167947;28;20363;-73
2022/12/15 07:09:20;;;;;;;11.65;7.28;;;2.40;99.90;;;1.05;100.00;99897.59;4167695;28;20048;-73
2022/12/15 07:11:22;;;;;;;14.52;8.25;;;2.40;99.90;;;1.05;100.00;99907.97;4167374;28;20033;-74
2022/12/15 07:13:23;;;;;;;12.57;7.72;;;2.30;99.90;;;1.00;100.00;99915.28;4166920;28;20082;-73
2022/12/15 07:15:24;;;;;;;10.85;7.80;;;2.30;99.90;;;0.99;100.00;99918.81;4167193;28;20049;-73
2022/12/15 07:17:25;;;;;;;12.32;7.43;;;2.20;99.90;;;1.01;100.00;99916.13;4168666;28;20021;-74
2022/12/15 07:19:26;;;;;;;11.57;7.22;;;2.30;99.90;;;0.97;100.00;99915.53;4167445;28;20026;-74
2022/12/15 07:21:27;;;;;;;10.55;7.43;;;2.20;99.90;;;0.96;100.00;99924.25;4150854;28;20026;-73
2022/12/15 07:23:28;;;;;;;12.55;7.18;;;2.20;99.90;;;0.90;100.00;99926.47;4168683;28;20052;-73
2022/12/15 07:25:29;;;;;;;10.85;7.13;;;2.20;99.90;;;0.90;100.00;99923.88;4168624;28;20036;-73
2022/12/15 07:27:30;;;;;;;14.13;7.68;;;2.20;99.90;;;0.83;100.00;99928.72;4168301;28;20026;-74
2022/12/15 07:29:31;;;;;;;12.38;6.47;;;2.10;99.90;;;0.81;100.00;99925.38;4168405;28;20025;-74
2022/12/15 07:31:31;;;;;;;11.25;6.20;;;2.10;99.90;;;0.80;100.00;99922.91;4168494;28;20075;-74
2022/12/15 07:33:34;;;;;;;13.48;7.22;;;2.00;99.90;;;0.89;100.00;99936.03;4168559;28;20485;-74
2022/12/15 07:35:35;;;;;;;11.38;6.90;;;2.10;99.90;;;0.88;100.00;99938.75;4168751;28;20393;-74
2022/12/15 07:37:36;;;;;;;13.00;7.00;;;2.10;99.90;;;0.86;100.00;99940.63;4167216;28;20025;-73
2022/12/15 07:39:36;;;;;;;10.70;6.55;;;2.10;99.90;;;0.80;100.00;99939.31;4168747;28;20029;-74
2022/12/15 07:41:39;;;;;;;12.57;7.05;;;2.10;99.90;;;0.80;99.15;99935.91;4150889;28;20053;-74
2022/12/15 07:43:40;;;;;;;12.00;7.40;;;2.00;99.90;;;0.79;98.19;99935.06;4167094;28;20516;-74
2022/12/15 07:45:40;;;;;;;12.60;7.07;;;2.00;99.90;;;0.83;98.30;99939.09;4167025;28;20037;-74
2022/12/15 07:47:41;;;;;;;9.57;6.18;;;2.00;99.90;;;0.91;98.83;99948.91;4168482;28;20029;-74
2022/12/15 07:49:42;;;;;;;9.82;6.13;;;2.10;99.90;;;0.88;97.68;99942.16;4168458;28;20018;-74
2022/12/15 07:51:43;;;;;;;10.73;6.40;;;2.00;99.90;;;0.90;96.08;99940.28;4167074;28;20029;-74
2022/12/15 07:53:45;;;;;;;10.27;6.20;;;2.10;99.90;;;0.87;95.59;99943.09;4168288;28;20029;-74
2022/12/15 07:55:57;;;;;;;11.52;6.97;;;2.10;99.90;;;0.88;94.89;99936.97;4168644;28;20057;-73
2022/12/15 07:57:58;;;;;;;9.23;5.65;;;2.10;99.90;;;0.89;94.33;99936.03;4170301;28;20365;-74
2022/12/15 07:59:59;;;;;;;11.80;7.10;;;2.10;99.90;;;0.97;93.71;99940.66;4170211;28;20036;-74
2022/12/15 08:02:02;;;;;;;10.70;6.38;;;2.20;99.90;;;0.99;92.46;99949.97;4158286;28;20029;-74
2022/12/15 08:04:03;;;;;;;11.40;6.85;;;2.20;99.90;;;1.02;92.92;99943.72;4171543;28;20053;-74
2022/12/15 08:06:07;;;;;;;9.95;6.38;;;2.20;99.90;;;1.02;93.09;99954.09;4170297;28;20029;-74
2022/12/15 08:08:08;;;;;;;11.73;6.70;;;2.20;99.90;;;1.06;93.92;99958.97;4170345;28;20021;-74
2022/12/15 08:10:09;;;;;;;11.38;7.18;;;2.30;99.90;;;1.11;92.63;99964.66;4170050;28;20105;-74
2022/12/15 08:12:09;;;;;;;10.38;6.25;;;2.30;99.90;;;1.18;91.95;99965.00;4171179;28;20038;-74
2022/12/15 08:14:10;;;;;;;13.25;7.28;;;2.30;99.90;;;1.13;92.58;99961.09;4171448;28;20018;-74
2022/12/15 08:16:11;;;;;;;9.40;6.32;;;2.30;99.90;;;1.13;93.64;99962.75;4170054;28;20053;-74
2022/12/15 08:18:12;;;;;;;10.07;7.03;;;2.30;99.90;;;1.15;93.02;99967.00;4169938;28;20076;-74
2022/12/15 08:20:14;;;;;;;9.45;6.75;;;2.30;99.90;;;1.11;92.82;99964.66;4171255;28;20444;-74
2022/12/15 08:22:14;;;;;;;11.70;7.00;;;2.30;99.90;;;1.19;92.59;99968.44;4170007;28;20532;-74
2022/12/15 08:24:18;;;;;;;12.80;7.53;;;2.40;99.90;;;1.12;92.12;99973.25;4171190;28;20033;-74
2022/12/15 08:26:19;;;;;;;11.48;6.72;;;2.30;99.90;;;1.10;92.27;99963.00;4169828;28;20021;-74
2022/12/15 08:28:20;;;;;;;10.20;6.72;;;2.30;99.90;;;1.10;90.96;99965.59;4153267;28;20036;-74
2022/12/15 08:30:22;;;;;;;11.88;6.55;;;2.40;99.90;;;1.09;91.57;99966.53;4170105;28;20034;-74
2022/12/15 08:32:23;;;;;;;11.27;6.65;;;2.40;99.90;;;1.13;89.86;99971.50;4169792;28;20037;-74
2022/12/15 08:34:24;;;;;;;12.23;6.97;;;2.40;99.90;;;1.18;90.24;99978.00;4169638;28;20022;-74
2022/12/15 08:36:25;;;;;;;9.93;6.55;;;2.40;99.90;;;1.11;91.61;99982.81;4171005;28;20103;-74
2022/12/15 08:38:26;;;;;;;10.45;6.05;;;2.40;99.90;;;1.17;90.43;99980.69;4169966;28;20029;-73
2022/12/15 08:40:26;;;;;;;13.30;7.70;;;2.40;99.90;;;1.17;89.12;99985.91;4169654;28;20061;-73
2022/12/15 08:42:33;;;;;;;12.98;6.82;;;2.30;99.90;;;1.08;89.84;99987.41;4169443;28;20036;-74
2022/12/15 08:44:34;;;;;;;10.38;6.45;;;2.40;99.90;;;1.11;90.03;99998.41;4169786;28;20041;-74
2022/12/15 08:46:35;;;;;;;11.68;7.57;;;2.30;99.90;;;1.13;90.85;100007.84;4169739;28;20461;-74
2022/12/15 08:48:36;;;;;;;12.10;7.32;;;2.30;99.90;;;1.08;90.08;99990.84;4170772;28;20044;-74
2022/12/15 08:50:37;;;;;;;12.55;6.80;;;2.30;99.90;;;1.13;90.10;100002.66;4169467;28;20428;-74
2022/12/15 08:52:40;;;;;;;12.52;7.65;;;2.30;99.90;;;1.09;91.12;100004.66;4169875;28;20112;-74
2022/12/15 08:54:41;;;;;;;16.27;8.07;;;2.30;99.90;;;1.22;93.16;100015.81;4170789;28;20021;-74
2022/12/15 08:56:42;;;;;;;9.25;6.22;;;2.40;99.90;;;1.09;91.93;100002.91;4170509;28;20041;-74
2022/12/15 08:58:44;;;;;;;13.30;7.82;;;2.40;99.90;;;1.17;91.49;100009.28;4169381;28;20512;-74
2022/12/15 09:00:46;;;;;;;11.38;7.63;;;2.40;99.90;;;1.22;90.37;100013.22;4148019;28;20026;-74
2022/12/15 09:02:47;;;;;;;9.68;6.03;;;2.40;99.90;;;1.32;90.92;100016.75;4185869;28;20058;-74
2022/12/15 09:04:49;;;;;;;12.05;6.78;;;2.50;99.90;;;1.34;89.64;100017.47;4165239;28;20083;-73
2022/12/15 09:06:50;;;;;;;12.75;7.15;;;2.50;99.90;;;1.34;88.83;100017.47;4168591;28;20528;-74
2022/12/15 09:08:56;;;;;;;13.25;6.82;;;2.50;99.90;;;1.40;87.80;100017.03;4169337;28;20044;-73
2022/12/15 09:10:58;;;;;;;11.02;7.00;;;2.60;99.90;;;1.48;86.29;100021.63;4169466;28;20037;-74
2022/12/15 09:13:00;;;;;;;11.48;7.00;;;2.60;99.90;;;1.54;85.41;100011.59;4168951;28;20559;-74
2022/12/15 09:15:01;;;;;;;11.07;7.20;;;2.70;99.90;;;1.62;85.22;100024.00;4170040;28;20505;-74
2022/12/15 09:17:02;;;;;;;12.82;7.30;;;2.80;99.90;;;1.69;83.71;100027.78;4170332;28;20079;-74
2022/12/15 09:19:03;;;;;;;11.02;6.47;;;2.80;99.90;;;1.80;84.02;100024.38;4170495;28;20026;-74
2022/12/15 09:21:07;;;;;;;12.38;6.75;;;2.90;99.90;;;1.97;82.92;100026.50;4170433;28;20033;-74
2022/12/15 09:23:07;;;;;;;10.70;6.90;;;3.00;99.90;;;1.99;81.78;100014.22;4168982;28;20025;-74
2022/12/15 09:25:09;;;;;;;9.30;6.22;;;3.20;99.90;;;2.32;83.04;100021.13;4169869;28;20382;-73
2022/12/15 09:27:10;;;;;;;10.73;6.40;;;3.40;99.90;;;2.49;82.73;100012.81;4167396;28;20047;-73
2022/12/15 09:29:14;;;;;;;11.13;6.72;;;3.60;99.90;;;2.66;81.35;100007.91;4170143;28;20033;-73
2022/12/15 09:31:20;;;;;;;11.70;7.45;;;3.70;99.90;;;2.82;82.21;100014.47;4170055;28;20036;-73
2022/12/15 09:33:21;;;;;;;11.43;6.38;;;3.80;99.90;;;2.81;80.05;100010.25;4168908;28;20421;-73
2022/12/15 09:35:22;;;;;;;11.50;7.25;;;3.90;99.90;;;2.75;78.77;99999.34;4169874;28;20030;-73
2022/12/15 09:37:23;;;;;;;9.65;6.15;;;3.90;99.90;;;2.71;78.21;99997.13;4169725;28;20025;-73
2022/12/15 09:39:24;;;;;;;12.13;7.05;;;4.00;99.90;;;2.84;79.65;100000.38;4168696;28;20089;-73
2022/12/15 09:41:34;;;;;;;10.80;6.80;;;4.10;99.90;;;2.75;78.28;100003.72;4168834;28;20061;-73
2022/12/15 09:43:39;;;;;;;11.25;6.93;;;4.00;99.90;;;2.82;77.68;100001.44;4168636;28;20033;-73
2022/12/15 09:45:46;;;;;;;10.93;6.85;;;4.00;99.90;;;2.69;76.20;99993.81;4168693;28;20018;-73
2022/12/15 09:48:09;;;;;;;11.57;7.15;;;4.10;99.90;;;2.72;77.12;100003.97;4156538;28;20032;-73
2022/12/15 09:50:14;;;;;;;9.38;6.13;;;4.00;99.90;;;2.78;77.17;99998.28;4168760;28;20029;-73
2022/12/15 09:52:23;;;;;;;9.60;6.22;;;4.00;99.90;;;2.90;78.38;100001.69;4168496;28;20083;-73
2022/12/15 09:54:33;;;;;;;10.35;6.75;;;4.10;99.90;;;2.86;77.03;100005.47;4169892;28;20077;-73
2022/12/15 09:56:48;;;;;;;11.60;6.93;;;4.10;99.90;;;2.94;77.89;100003.91;4168742;28;20504;-73
2022/12/15 09:59:04;;;;;;;10.00;6.53;;;4.10;99.90;;;2.86;76.06;99993.28;4168527;28;20040;-73
2022/12/15 10:01:34;;;;;;;12.98;6.82;;;4.20;99.90;;;2.95;77.03;100005.56;4145452;28;20022;-73
2022/12/15 10:03:56;;;;;;;13.20;6.35;;;4.20;99.90;;;3.00;77.45;100011.22;4183064;28;20079;-73
2022/12/15 10:06:17;;;;;;;9.15;5.93;;;4.20;99.90;;;3.01;75.22;99989.44;4166435;28;20072;-74
2022/12/15 10:08:21;;;;;;;10.05;6.45;;;4.20;99.90;;;2.95;75.63;100005.56;4167513;28;20064;-74
2022/12/15 10:10:23;;;;;;;13.35;6.95;;;4.20;99.90;;;2.99;76.28;100004.34;4167890;28;20034;-73
2022/12/15 10:12:32;;;;;;;11.25;6.82;;;4.20;99.90;;;2.98;74.52;100010.50;4167822;28;20029;-74
2022/12/15 10:15:14;;;;;;;11.13;6.38;;;4.20;99.90;;;2.96;73.91;100017.59;4165510;28;20037;-75
2022/12/15 10:17:34;;;;;;;10.27;6.93;;;4.30;99.90;;;3.11;74.69;100010.31;4140383;28;20085;-74
2022/12/15 10:20:21;;;;;;;10.32;6.10;;;4.30;99.90;;;3.23;74.95;100014.50;4162983;28;20028;-74
2022/12/15 10:22:33;;;;;;;12.25;6.43;;;4.40;99.90;;;3.27;73.96;100008.94;4160896;28;20049;-76
2022/12/15 10:24:35;;;;;;;12.10;7.93;;;4.50;99.90;;;3.32;73.53;100004.16;4167158;28;20030;-77
2022/12/15 10:26:38;;;;;;;10.13;6.35;;;4.60;99.90;;;3.32;73.24;100003.31;4168530;28;20029;-77
2022/12/15 10:29:19;;;;;;;10.90;7.07;;;4.60;99.90;;;3.40;72.30;100013.13;4167393;28;20021;-77
2022/12/15 10:31:40;;;;;;;9.63;6.13;;;4.70;99.90;;;3.54;74.58;100031.03;4168892;28;20457;-77
2022/12/15 10:33:42;;;;;;;11.75;7.03;;;4.70;99.90;;;3.41;73.25;100012.16;4167394;28;20509;-77
2022/12/15 10:35:43;;;;;;;9.65;6.43;;;4.60;99.90;;;3.51;73.70;100006.06;4168388;28;20504;-76
2022/12/15 10:37:44;;;;;;;11.45;6.70;;;4.70;99.90;;;3.54;74.44;100011.00;4168372;28;20030;-76
2022/12/15 10:39:49;;;;;;;10.18;6.45;;;4.70;99.90;;;3.36;72.95;100004.72;4168177;28;20029;-76
2022/12/15 10:42:15;;;;;;;10.82;6.55;;;4.70;99.90;;;3.37;71.59;100002.94;4167355;28;20033;-76
2022/12/15 10:44:35;;;;;;;11.35;7.28;;;4.70;99.90;;;3.42;72.85;100003.38;4151021;28;20029;-75
2022/12/15 10:46:35;;;;;;;9.32;6.30;;;4.70;99.90;;;3.52;72.24;99991.25;4183686;28;20040;-76
2022/12/15 10:48:36;;;;;;;9.57;6.45;;;4.70;99.90;;;3.62;72.34;100002.53;4162917;28;20095;-76
2022/12/15 10:50:37;;;;;;;8.73;6.50;;;4.80;99.90;;;3.69;71.75;99995.84;4168180;28;20039;-74
2022/12/15 10:52:38;;;;;;;11.77;6.38;;;4.90;99.90;;;3.62;71.75;99984.28;4167474;28;20088;-75
2022/12/15 10:54:46;;;;;;;10.50;7.10;;;4.90;99.90;;;3.75;72.04;99997.94;4167214;28;20491;-77
2022/12/15 10:56:49;;;;;;;12.05;6.50;;;4.90;99.90;;;3.73;71.26;99994.63;4167052;28;20037;-75
2022/12/15 10:58:54;;;;;;;9.35;6.30;;;5.00;99.90;;;3.74;72.68;100001.50;4168218;28;20072;-76
2022/12/15 11:01:18;;;;;;;11.13;6.88;;;5.00;99.90;;;3.62;73.68;99994.69;4150871;28;20060;-73
2022/12/15 11:03:25;;;;;;;11.25;7.00;;;4.90;99.90;;;3.64;73.02;99995.41;4162306;28;20146;-73
2022/12/15 11:05:26;;;;;;;13.02;7.45;;;5.00;99.90;;;3.53;72.25;99992.88;4158618;28;20029;-74
2022/12/15 11:07:42;;;;;;;12.88;7.30;;;4.80;99.90;;;3.62;73.26;99992.94;4166690;28;20037;-74
2022/12/15 11:09:45;;;;;;;10.38;6.93;;;4.90;99.90;;;3.69;72.65;99986.25;4165984;28;20104;-74
2022/12/15 11:14:25;;;;;;;13.55;7.28;;;4.90;99.90;;;3.66;72.28;99983.91;4167110;28;20029;-73